Time;durP1;ratioP1;P1;durP2;ratioP2;P2;SDS_P1;SDS_P2;PMS_P1;PMS_P2;Temp;Humidity;BMP_temperature;BMP_pressure;BME280_temperature;BME280_humidity;BME280_pressure;Samples;Min_cycle;Max_cycle;Signal;HPM_P1;HPM_P2
2022/11/25 00:01:25;;;;;;;8.15;4.47;;;;;;;;;;5008942;28;20444;-74
2022/11/25 00:03:54;;;;;;;7.43;4.43;;;;;;;;;;5006385;28;20483;-73
2022/11/25 00:06:25;;;;;;;7.60;4.28;;;;;;;;;;4997156;28;20129;-74
2022/11/25 00:08:55;;;;;;;8.27;3.88;;;;;;;;;;5009562;28;20456;-74
2022/11/25 00:11:20;;;;;;;5.88;3.60;;;;;;;;;;5000643;28;20034;-74
2022/11/25 00:13:48;;;;;;;5.63;3.55;;;;;;;;;;5007259;28;20178;-73
2022/11/25 00:16:20;;;;;;;6.03;4.00;;;;;;;;;;4996786;28;20030;-74
2022/11/25 00:18:51;;;;;;;9.18;3.90;;;;;;;;;;5008981;28;20124;-74
2022/11/25 00:21:20;;;;;;;10.40;4.47;;;;;;;;;;5012451;28;20040;-74
2022/11/25 00:23:54;;;;;;;9.90;4.00;;;;;;;;;;5012062;28;20053;-74
2022/11/25 00:26:21;;;;;;;8.95;4.05;;;;;;;;;;5005888;28;20041;-75
2022/11/25 00:28:48;;;;;;;6.05;3.78;;;;;;;;;;5010235;28;20034;-74
2022/11/25 00:31:19;;;;;;;5.80;3.70;;;;;;;;;;5006581;28;20037;-75
2022/11/25 00:33:45;;;;;;;7.15;3.45;;;;;;;;;;5021842;28;20125;-74
2022/11/25 00:36:19;;;;;;;9.00;3.80;;;;;;;;;;5004939;28;20041;-74
2022/11/25 00:38:45;;;;;;;;;;;;;;;;;;5006547;28;20391;-75
2022/11/25 00:46:41;;;;;;;5.95;3.40;;;;;;;;;;5010377;28;20088;-73
2022/11/25 00:49:07;;;;;;;4.88;2.85;;;;;;;;;;5006561;28;20022;-73
2022/11/25 00:51:33;;;;;;;7.38;3.40;;;;;;;;;;5003157;28;20428;-74
2022/11/25 00:53:59;;;;;;;12.30;4.20;;;;;;;;;;4997725;28;20027;-73
2022/11/25 00:56:25;;;;;;;9.30;3.80;;;;;;;;;;5007976;28;20487;-75
2022/11/25 00:58:52;;;;;;;7.10;3.65;;;;;;;;;;5006509;28;20026;-74
2022/11/25 01:01:19;;;;;;;5.45;3.30;;;;;;;;;;5006162;28;20484;-74
2022/11/25 01:03:48;;;;;;;5.40;3.22;;;;;;;;;;5005936;28;20034;-74
2022/11/25 01:06:14;;;;;;;4.70;3.17;;;;;;;;;;5012442;28;20073;-74
2022/11/25 01:08:39;;;;;;;6.20;3.50;;;;;;;;;;5017079;28;20057;-74
2022/11/25 01:11:09;;;;;;;5.85;3.40;;;;;;;;;;5007015;28;20092;-73
2022/11/25 01:13:35;;;;;;;7.90;3.25;;;;;;;;;;5008970;28;20034;-74
2022/11/25 01:16:02;;;;;;;7.28;3.20;;;;;;;;;;5010549;28;20033;-73
2022/11/25 01:18:29;;;;;;;4.65;2.90;;;;;;;;;;5007452;28;20501;-74
2022/11/25 01:21:14;;;;;;;6.30;3.50;;;;;;;;;;5008044;28;20030;-74
2022/11/25 01:23:41;;;;;;;6.15;4.18;;;;;;;;;;5003660;28;20052;-74
2022/11/25 01:26:13;;;;;;;7.15;3.83;;;;;;;;;;5009956;28;20038;-74
2022/11/25 01:28:39;;;;;;;5.13;3.40;;;;;;;;;;5012392;28;20059;-74
2022/11/25 01:31:17;;;;;;;5.05;2.83;;;;;;;;;;5008599;28;20037;-73
2022/11/25 01:33:44;;;;;;;4.90;3.25;;;;;;;;;;5009602;28;20065;-74
2022/11/25 01:36:17;;;;;;;5.55;3.17;;;;;;;;;;5004789;28;20026;-74
2022/11/25 01:38:44;;;;;;;5.72;3.08;;;;;;;;;;5005365;28;20042;-74
2022/11/25 01:41:13;;;;;;;5.13;2.72;;;;;;;;;;5004499;28;20030;-74
2022/11/25 01:43:40;;;;;;;5.22;3.00;;;;;;;;;;5002526;28;20173;-74
2022/11/25 01:46:24;;;;;;;4.63;3.13;;;;;;;;;;5003574;28;20034;-74
2022/11/25 01:48:59;;;;;;;5.10;3.10;;;;;;;;;;5018664;28;20038;-74
2022/11/25 01:51:53;;;;;;;8.25;2.83;;;;;;;;;;5007875;28;20087;-74
2022/11/25 01:54:23;;;;;;;6.15;3.10;;;;;;;;;;4998114;28;20046;-74
2022/11/25 01:56:57;;;;;;;4.63;2.95;;;;;;;;;;5006392;28;20022;-74
2022/11/25 01:59:25;;;;;;;6.80;2.95;;;;;;;;;;5001913;28;20124;-74
2022/11/25 02:01:51;;;;;;;6.22;3.72;;;;;;;;;;5008810;28;20025;-74
2022/11/25 02:04:24;;;;;;;8.20;3.88;;;;;;;;;;5003601;28;20061;-74
2022/11/25 02:06:56;;;;;;;6.28;3.22;;;;;;;;;;5004732;28;20040;-74
2022/11/25 02:09:23;;;;;;;5.20;3.20;;;;;;;;;;5009829;28;20041;-74
2022/11/25 02:11:50;;;;;;;5.97;3.20;;;;;;;;;;5006053;28;20018;-74
2022/11/25 02:14:18;;;;;;;4.82;2.97;;;;;;;;;;5001661;28;20120;-74
2022/11/25 02:16:44;;;;;;;7.75;3.75;;;;;;;;;;5010878;28;20784;-74
2022/11/25 02:19:24;;;;;;;5.53;3.22;;;;;;;;;;4996843;28;20512;-75
2022/11/25 02:21:55;;;;;;;6.55;3.60;;;;;;;;;;5004362;28;20365;-75
2022/11/25 02:24:39;;;;;;;5.07;3.33;;;;;;;;;;5018070;28;20044;-75
2022/11/25 02:27:06;;;;;;;7.88;4.00;;;;;;;;;;5024186;28;20511;-76
2022/11/25 02:29:32;;;;;;;5.97;3.88;;;;;;;;;;5006328;28;20033;-74
2022/11/25 02:31:58;;;;;;;4.72;3.20;;;;;;;;;;5021424;28;20037;-74
2022/11/25 02:34:24;;;;;;;7.70;3.65;;;;;;;;;;5007141;28;20472;-74
2022/11/25 02:36:52;;;;;;;7.00;3.80;;;;;;;;;;5006329;28;20030;-74
2022/11/25 02:39:19;;;;;;;6.75;3.97;;;;;;;;;;5008210;28;20117;-74
2022/11/25 02:41:55;;;;;;;8.20;5.05;;;;;;;;;;5002336;28;20030;-75
2022/11/25 02:44:21;;;;;;;7.15;4.85;;;;;;;;;;5000055;28;20034;-74
2022/11/25 02:46:47;;;;;;;8.50;4.70;;;;;;;;;;5022189;28;20093;-74
2022/11/25 02:49:14;;;;;;;9.02;4.90;;;;;;;;;;5001262;28;20038;-74
2022/11/25 02:51:43;;;;;;;11.05;5.40;;;;;;;;;;5003157;28;20031;-74
2022/11/25 02:54:11;;;;;;;7.20;4.53;;;;;;;;;;5006120;28;20038;-74
2022/11/25 02:56:39;;;;;;;8.35;4.85;;;;;;;;;;5003476;28;20125;-71
2022/11/25 02:59:05;;;;;;;12.25;4.93;;;;;;;;;;5003269;28;20487;-73
2022/11/25 03:01:32;;;;;;;11.95;4.82;;;;;;;;;;5007556;28;20388;-73
2022/11/25 03:03:58;;;;;;;11.75;4.82;;;;;;;;;;5004391;28;20034;-73
2022/11/25 03:06:27;;;;;;;13.48;5.25;;;;;;;;;;5004325;28;20068;-73
2022/11/25 03:08:53;;;;;;;9.10;4.18;;;;;;;;;;5009425;28;20034;-74
2022/11/25 03:11:19;;;;;;;7.05;4.18;;;;;;;;;;5006396;28;20044;-73
2022/11/25 03:13:45;;;;;;;11.77;5.13;;;;;;;;;;5010105;28;20034;-74
2022/11/25 03:16:11;;;;;;;7.80;4.53;;;;;;;;;;5010815;28;20030;-74
2022/11/25 03:18:37;;;;;;;9.43;4.97;;;;;;;;;;4991506;28;20073;-73
2022/11/25 03:21:03;;;;;;;11.30;5.32;;;;;;;;;;4992601;28;20027;-74
2022/11/25 03:23:29;;;;;;;9.02;4.97;;;;;;;;;;5009904;28;20081;-75
2022/11/25 03:25:55;;;;;;;7.43;4.40;;;;;;;;;;5010722;28;20034;-73
2022/11/25 03:28:22;;;;;;;7.40;4.65;;;;;;;;;;4995781;28;20038;-73
2022/11/25 03:30:48;;;;;;;7.50;4.93;;;;;;;;;;4991721;28;20053;-74
2022/11/25 03:33:14;;;;;;;10.68;5.55;;;;;;;;;;4974078;28;20034;-74
2022/11/25 03:35:40;;;;;;;15.18;7.35;;;;;;;;;;4990398;28;20031;-73
2022/11/25 03:38:08;;;;;;;15.88;6.82;;;;;;;;;;4974811;28;20042;-74
2022/11/25 03:40:35;;;;;;;12.60;6.30;;;;;;;;;;4991588;28;20038;-74
2022/11/25 03:43:01;;;;;;;12.95;6.05;;;;;;;;;;5002922;28;20093;-74
2022/11/25 03:45:28;;;;;;;10.48;5.82;;;;;;;;;;5010473;28;20026;-74
2022/11/25 03:47:57;;;;;;;15.20;6.07;;;;;;;;;;5009104;28;20143;-75
2022/11/25 03:50:24;;;;;;;11.80;5.25;;;;;;;;;;5008708;28;20054;-75
2022/11/25 03:52:50;;;;;;;13.32;5.68;;;;;;;;;;5007284;28;20076;-74
2022/11/25 03:55:18;;;;;;;10.35;5.20;;;;;;;;;;4985910;28;20129;-73
2022/11/25 03:58:15;;;;;;;10.98;5.07;;;;;;;;;;5009701;28;20046;-73
2022/11/25 04:00:42;;;;;;;10.07;4.85;;;;;;;;;;4998882;28;20041;-74
2022/11/25 04:03:08;;;;;;;9.90;4.95;;;;;;;;;;5001445;28;20053;-74
2022/11/25 04:05:34;;;;;;;13.65;5.82;;;;;;;;;;4992335;28;20030;-75
2022/11/25 04:08:04;;;;;;;16.73;6.45;;;;;;;;;;5008426;28;20064;-74
2022/11/25 04:10:32;;;;;;;16.52;6.60;;;;;;;;;;5008579;28;20454;-74
2022/11/25 04:12:57;;;;;;;10.68;6.00;;;;;;;;;;5008997;28;20113;-74
2022/11/25 04:15:31;;;;;;;;;;;;;;;;;;5011143;28;20038;-73
2022/11/25 04:17:58;;;;;;;16.23;7.57;;;;;;;;;;5008199;28;20319;-74
2022/11/25 04:20:24;;;;;;;9.20;5.43;;;;;;;;;;5009955;28;20029;-74
2022/11/25 04:22:57;;;;;;;10.23;4.47;;;;;;;;;;5008628;28;20515;-73
2022/11/25 04:25:23;;;;;;;10.43;4.53;;;;;;;;;;5009032;28;20407;-74
2022/11/25 04:27:50;;;;;;;13.32;5.00;;;;;;;;;;5010293;28;20036;-74
2022/11/25 04:30:21;;;;;;;11.23;4.90;;;;;;;;;;5009327;28;20037;-74
2022/11/25 04:32:47;;;;;;;14.88;4.80;;;;;;;;;;5008518;28;20030;-74
2022/11/25 04:35:16;;;;;;;8.27;4.32;;;;;;;;;;5010298;28;20030;-74
2022/11/25 04:37:45;;;;;;;8.25;3.85;;;;;;;;;;5008946;28;20128;-74
2022/11/25 04:40:12;;;;;;;8.95;3.72;;;;;;;;;;5009485;28;20026;-74
2022/11/25 04:42:45;;;;;;;8.18;3.97;;;;;;;;;;5011456;28;20049;-73
2022/11/25 04:45:15;;;;;;;7.70;4.18;;;;;;;;;;5011407;28;20041;-74
2022/11/25 04:47:44;;;;;;;7.45;4.45;;;;;;;;;;5009742;28;20026;-74
2022/11/25 04:50:18;;;;;;;10.30;5.50;;;;;;;;;;4993682;28;20037;-73
2022/11/25 04:52:53;;;;;;;9.70;4.95;;;;;;;;;;5024683;28;20042;-74
2022/11/25 04:55:19;;;;;;;11.80;5.68;;;;;;;;;;5006515;28;20047;-74
2022/11/25 04:57:46;;;;;;;16.02;7.32;;;;;;;;;;4990271;28;20034;-74
2022/11/25 05:00:14;;;;;;;17.17;8.77;;;;;;;;;;4990278;28;20044;-74
2022/11/25 05:02:40;;;;;;;17.90;7.85;;;;;;;;;;4990073;28;20049;-74
2022/11/25 05:05:13;;;;;;;17.25;7.20;;;;;;;;;;5007296;28;20042;-75
2022/11/25 05:07:39;;;;;;;14.82;7.03;;;;;;;;;;5004896;28;20057;-74
2022/11/25 05:10:07;;;;;;;15.48;6.35;;;;;;;;;;5013396;28;20032;-74
2022/11/25 05:12:37;;;;;;;13.10;6.05;;;;;;;;;;5012161;28;20056;-74
2022/11/25 05:15:08;;;;;;;7.93;4.53;;;;;;;;;;5012271;28;20033;-74
2022/11/25 05:17:37;;;;;;;16.88;6.57;;;;;;;;;;5012384;28;20033;-74
2022/11/25 05:20:04;;;;;;;16.08;6.13;;;;;;;;;;5026333;28;20033;-73
2022/11/25 05:22:33;;;;;;;15.75;5.03;;;;;;;;;;5012619;28;20050;-74
2022/11/25 05:25:00;;;;;;;11.70;5.35;;;;;;;;;;5012642;28;20056;-73
2022/11/25 05:27:27;;;;;;;23.60;9.40;;;;;;;;;;5012636;28;20049;-74
2022/11/25 05:29:54;;;;;;;14.57;5.70;;;;;;;;;;4993751;28;20502;-74
2022/11/25 05:32:20;;;;;;;12.73;4.90;;;;;;;;;;5010196;28;20061;-73
2022/11/25 05:34:45;;;;;;;9.80;4.25;;;;;;;;;;5012613;28;20024;-74
2022/11/25 05:37:13;;;;;;;8.68;3.58;;;;;;;;;;5009909;28;20052;-74
2022/11/25 05:39:46;;;;;;;13.40;5.45;;;;;;;;;;5011081;28;20061;-75
2022/11/25 05:42:32;;;;;;;7.95;3.67;;;;;;;;;;5001821;28;20060;-75
2022/11/25 05:45:02;;;;;;;11.43;4.43;;;;;;;;;;5012746;28;20025;-72
2022/11/25 05:47:29;;;;;;;14.13;4.90;;;;;;;;;;5013020;28;20033;-72
2022/11/25 05:49:55;;;;;;;19.95;5.80;;;;;;;;;;5012841;28;20033;-72
2022/11/25 05:52:21;;;;;;;13.77;5.38;;;;;;;;;;5013040;28;20065;-72
2022/11/25 05:54:53;;;;;;;23.05;7.55;;;;;;;;;;5010777;28;20061;-73
2022/11/25 05:57:19;;;;;;;22.90;8.45;;;;;;;;;;5012745;28;20065;-72
2022/11/25 05:59:49;;;;;;;34.70;8.45;;;;;;;;;;5011976;28;20112;-74
2022/11/25 06:02:40;;;;;;;27.73;8.15;;;;;;;;;;5013065;28;20038;-73
2022/11/25 06:05:08;;;;;;;22.38;6.90;;;;;;;;;;5011894;28;20040;-74
2022/11/25 06:07:33;;;;;;;23.58;6.55;;;;;;;;;;5012417;28;20030;-74
2022/11/25 06:10:00;;;;;;;12.60;6.07;;;;;;;;;;5027916;28;20045;-73
2022/11/25 06:12:26;;;;;;;17.38;6.93;;;;;;;;;;4994202;28;20126;-74
2022/11/25 06:14:52;;;;;;;19.98;7.60;;;;;;;;;;5011880;28;20558;-74
2022/11/25 06:17:18;;;;;;;17.42;6.60;;;;;;;;;;5012489;28;20060;-75
2022/11/25 06:19:59;;;;;;;10.13;5.40;;;;;;;;;;4998058;28;20129;-74
2022/11/25 06:22:26;;;;;;;10.60;5.88;;;;;;;;;;5012653;28;20057;-77
2022/11/25 06:24:52;;;;;;;11.43;5.32;;;;;;;;;;5013835;28;20109;-73
2022/11/25 06:27:18;;;;;;;15.13;5.20;;;;;;;;;;5013890;28;20140;-74
2022/11/25 06:29:43;;;;;;;18.80;6.10;;;;;;;;;;4996677;28;20022;-74
2022/11/25 06:32:11;;;;;;;12.15;5.00;;;;;;;;;;5012125;28;20041;-74
2022/11/25 06:35:00;;;;;;;11.93;5.40;;;;;;;;;;5005074;28;20068;-74
2022/11/25 06:37:47;;;;;;;16.20;5.00;;;;;;;;;;5012359;28;20030;-75
2022/11/25 06:40:13;;;;;;;11.02;5.78;;;;;;;;;;5015945;28;20037;-74
2022/11/25 06:42:42;;;;;;;9.10;5.63;;;;;;;;;;5011805;28;20022;-74
2022/11/25 06:45:08;;;;;;;13.07;5.78;;;;;;;;;;5013690;28;20044;-73
2022/11/25 06:47:34;;;;;;;11.35;5.30;;;;;;;;;;5013482;28;20026;-74
2022/11/25 06:50:00;;;;;;;15.13;6.90;;;;;;;;;;5013203;28;20526;-73
2022/11/25 06:52:26;;;;;;;18.00;6.40;;;;;;;;;;5012547;28;20519;-73
2022/11/25 06:54:52;;;;;;;14.18;6.30;;;;;;;;;;5012599;28;20103;-74
2022/11/25 06:57:18;;;;;;;34.92;8.73;;;;;;;;;;5012369;28;20025;-74
2022/11/25 06:59:44;;;;;;;16.55;6.10;;;;;;;;;;5013268;28;20037;-73
2022/11/25 07:02:11;;;;;;;11.98;6.05;;;;;;;;;;5013458;28;20395;-72
2022/11/25 07:04:37;;;;;;;13.30;6.50;;;;;;;;;;5014154;28;20033;-73
2022/11/25 07:07:03;;;;;;;18.40;6.22;;;;;;;;;;5013491;28;20550;-72
2022/11/25 07:09:29;;;;;;;10.55;4.05;;;;;;;;;;5013522;28;20030;-75
2022/11/25 07:11:55;;;;;;;8.88;3.78;;;;;;;;;;5012889;28;20033;-74
2022/11/25 07:14:21;;;;;;;8.52;3.17;;;;;;;;;;5012878;28;20069;-73
2022/11/25 07:16:47;;;;;;;6.93;2.90;;;;;;;;;;5012839;28;20104;-74
2022/11/25 07:19:15;;;;;;;5.32;2.80;;;;;;;;;;5012818;28;20164;-72
2022/11/25 07:21:43;;;;;;;7.32;3.25;;;;;;;;;;5012898;28;20044;-73
2022/11/25 07:24:11;;;;;;;10.93;2.70;;;;;;;;;;5012843;28;20053;-74
2022/11/25 07:26:38;;;;;;;5.07;2.63;;;;;;;;;;5013086;28;20038;-74
2022/11/25 07:29:10;;;;;;;6.78;2.60;;;;;;;;;;5013254;28;20026;-75
2022/11/25 07:31:38;;;;;;;8.02;2.63;;;;;;;;;;5012977;28;20121;-74
2022/11/25 07:34:10;;;;;;;4.75;2.65;;;;;;;;;;5013682;28;20072;-71
2022/11/25 07:36:37;;;;;;;4.57;2.63;;;;;;;;;;5012852;28;20106;-72
2022/11/25 07:39:06;;;;;;;4.53;2.25;;;;;;;;;;5013390;28;20737;-73
2022/11/25 07:41:32;;;;;;;7.20;2.25;;;;;;;;;;5011176;28;20032;-74
2022/11/25 07:44:02;;;;;;;4.32;2.03;;;;;;;;;;5026119;28;20391;-74
2022/11/25 07:46:37;;;;;;;5.97;2.30;;;;;;;;;;5010189;28;20061;-74
2022/11/25 07:49:06;;;;;;;5.32;2.53;;;;;;;;;;5012104;28;20038;-74
2022/11/25 07:51:58;;;;;;;9.00;2.63;;;;;;;;;;5010776;28;20568;-75
2022/11/25 07:54:24;;;;;;;4.85;2.58;;;;;;;;;;5010783;28;20045;-77
2022/11/25 07:56:50;;;;;;;6.60;2.28;;;;;;;;;;5012147;28;20083;-74
2022/11/25 07:59:18;;;;;;;4.55;2.20;;;;;;;;;;5011345;28;20044;-75
2022/11/25 08:01:45;;;;;;;6.07;2.40;;;;;;;;;;5011185;28;20667;-74
2022/11/25 08:04:13;;;;;;;13.38;3.25;;;;;;;;;;5011976;28;20045;-73
2022/11/25 08:06:44;;;;;;;9.95;2.53;;;;;;;;;;5010527;28;20041;-74
2022/11/25 08:09:18;;;;;;;4.43;2.00;;;;;;;;;;5010511;28;20036;-76
2022/11/25 08:11:44;;;;;;;6.45;2.17;;;;;;;;;;5011522;28;20117;-75
2022/11/25 08:14:10;;;;;;;6.03;2.03;;;;;;;;;;5011980;28;20148;-73
2022/11/25 08:16:37;;;;;;;3.53;1.95;;;;;;;;;;5011360;28;20099;-72
2022/11/25 08:19:05;;;;;;;3.40;1.60;;;;;;;;;;5012301;28;20045;-73
2022/11/25 08:21:32;;;;;;;3.17;1.80;;;;;;;;;;5010640;28;20460;-73
2022/11/25 08:23:58;;;;;;;3.22;1.70;;;;;;;;;;5011260;28;20194;-73
2022/11/25 08:26:31;;;;;;;4.20;1.75;;;;;;;;;;5011618;28;20068;-72
2022/11/25 08:28:58;;;;;;;5.05;1.60;;;;;;;;;;4994971;28;20496;-72
2022/11/25 08:31:27;;;;;;;3.70;1.90;;;;;;;;;;4992785;28;20428;-75
2022/11/25 08:33:54;;;;;;;6.07;1.70;;;;;;;;;;4999398;28;20336;-73
2022/11/25 08:36:20;;;;;;;10.75;2.40;;;;;;;;;;5001026;28;20034;-74
2022/11/25 08:38:49;;;;;;;4.40;1.63;;;;;;;;;;4992172;28;20117;-74
2022/11/25 08:41:22;;;;;;;10.50;2.95;;;;;;;;;;5011560;28;20026;-74
2022/11/25 08:43:48;;;;;;;3.63;1.90;;;;;;;;;;5015429;28;20117;-75
2022/11/25 08:46:17;;;;;;;6.32;2.00;;;;;;;;;;5015271;28;20017;-74
2022/11/25 08:48:44;;;;;;;8.77;2.47;;;;;;;;;;5007022;28;20058;-73
2022/11/25 08:51:14;;;;;;;7.05;2.25;;;;;;;;;;4995211;28;20026;-73
2022/11/25 08:53:40;;;;;;;3.90;1.65;;;;;;;;;;4995298;28;20080;-72
2022/11/25 08:56:07;;;;;;;5.85;1.77;;;;;;;;;;4995351;28;20042;-73
2022/11/25 08:58:35;;;;;;;6.20;1.85;;;;;;;;;;5002283;28;20033;-74
2022/11/25 09:01:01;;;;;;;3.53;1.23;;;;;;;;;;5014702;28;20084;-73
2022/11/25 09:03:31;;;;;;;4.13;1.42;;;;;;;;;;5015052;28;20034;-74
2022/11/25 09:05:57;;;;;;;5.45;1.60;;;;;;;;;;5014890;28;20040;-72
2022/11/25 09:08:22;;;;;;;6.32;1.70;;;;;;;;;;5014912;28;20112;-73
2022/11/25 09:10:50;;;;;;;2.40;1.30;;;;;;;;;;5014592;28;20026;-73
2022/11/25 09:13:16;;;;;;;5.00;1.65;;;;;;;;;;5015035;28;20480;-73
2022/11/25 09:15:42;;;;;;;3.97;1.80;;;;;;;;;;5010558;28;20037;-73
2022/11/25 09:18:10;;;;;;;7.32;2.05;;;;;;;;;;5010182;28;20080;-74
2022/11/25 09:20:39;;;;;;;7.03;1.42;;;;;;;;;;4995297;28;20037;-74
2022/11/25 09:23:06;;;;;;;2.63;1.02;;;;;;;;;;5009860;28;20061;-72
2022/11/25 09:25:33;;;;;;;3.38;1.33;;;;;;;;;;4995266;28;20523;-76
2022/11/25 09:28:00;;;;;;;5.55;1.70;;;;;;;;;;5010579;28;20415;-70
2022/11/25 09:30:26;;;;;;;5.40;1.40;;;;;;;;;;5014720;28;20116;-77
2022/11/25 09:32:55;;;;;;;4.63;1.27;;;;;;;;;;5012944;28;20034;-76
2022/11/25 09:35:23;;;;;;;1.55;1.10;;;;;;;;;;5014315;28;20387;-77
2022/11/25 09:37:49;;;;;;;5.78;1.50;;;;;;;;;;5013990;28;20040;-75
2022/11/25 09:40:40;;;;;;;10.23;5.60;;;;;;;;;;5001717;28;20101;-76
2022/11/25 09:49:30;;;;;;;4.43;1.50;;;;;;;;;;4995793;28;20550;-77
2022/11/25 09:52:18;;;;;;;4.18;1.85;;;;;;;;;;4994047;28;20464;-77
2022/11/25 09:55:01;;;;;;;7.63;1.45;;;;;;;;;;4995473;28;20061;-80
2022/11/25 09:57:46;;;;;;;4.00;1.10;;;;;;;;;;4978742;28;20555;-77
2022/11/25 10:00:15;;;;;;;3.65;1.50;;;;;;;;;;4994905;28;20052;-77
2022/11/25 10:03:01;;;;;;;9.07;1.75;;;;;;;;;;4995014;28;20029;-74
2022/11/25 10:05:40;;;;;;;3.30;1.63;;;;;;;;;;4994141;28;20038;-73
2022/11/25 10:08:15;;;;;;;3.80;2.08;;;;;;;;;;4994937;28;20226;-74
2022/11/25 10:10:52;;;;;;;7.10;1.40;;;;;;;;;;4995294;28;20026;-73
2022/11/25 10:13:34;;;;;;;2.67;1.30;;;;;;;;;;4994218;28;20038;-76
2022/11/25 10:16:05;;;;;;;3.80;0.80;;;;;;;;;;4994387;28;20042;-74
2022/11/25 10:18:44;;;;;;;6.40;1.40;;;;;;;;;;5007859;28;20546;-75
2022/11/25 10:21:10;;;;;;;2.05;1.10;;;;;;;;;;5013905;28;20040;-76
2022/11/25 10:23:38;;;;;;;2.97;1.30;;;;;;;;;;5013685;28;20361;-75
2022/11/25 10:26:15;;;;;;;2.58;1.00;;;;;;;;;;5013635;28;20042;-74
2022/11/25 10:29:02;;;;;;;1.60;0.90;;;;;;;;;;5012636;28;20088;-75
2022/11/25 10:31:35;;;;;;;5.72;3.17;;;;;;;;;;4997723;28;20035;-78
2022/11/25 10:34:10;;;;;;;;;;;;;;;;;;4995951;28;20104;-76
2022/11/25 10:36:39;;;;;;;1.30;0.80;;;;;;;;;;4993924;28;19956;-74
2022/11/25 10:39:25;;;;;;;2.38;1.00;;;;;;;;;;4993611;28;20484;-75
2022/11/25 10:41:58;;;;;;;3.20;0.80;;;;;;;;;;5006606;28;20022;-73
2022/11/25 10:44:27;;;;;;;2.97;1.08;;;;;;;;;;4995187;28;20130;-73
2022/11/25 10:47:16;;;;;;;3.05;1.20;;;;;;;;;;4992420;28;20022;-77
2022/11/25 10:50:06;;;;;;;1.95;0.90;;;;;;;;;;4993946;28;20552;-73
2022/11/25 10:52:39;;;;;;;2.03;0.90;;;;;;;;;;4994042;28;20097;-73
2022/11/25 10:55:14;;;;;;;1.17;0.70;;;;;;;;;;4991967;28;20113;-74
2022/11/25 10:57:41;;;;;;;1.05;0.75;;;;;;;;;;4993878;28;20042;-73
2022/11/25 11:00:25;;;;;;;3.22;1.10;;;;;;;;;;4993749;28;20037;-73
2022/11/25 11:02:51;;;;;;;1.95;0.93;;;;;;;;;;4993089;28;20023;-74
2022/11/25 11:05:29;;;;;;;2.38;1.13;;;;;;;;;;4992308;28;20092;-73
2022/11/25 11:08:19;;;;;;;2.83;0.90;;;;;;;;;;4994387;28;20194;-74
2022/11/25 11:10:46;;;;;;;3.08;0.80;;;;;;;;;;5012642;28;20380;-73
2022/11/25 11:13:32;;;;;;;1.60;0.90;;;;;;;;;;5012714;28;20488;-72
2022/11/25 11:15:58;;;;;;;1.95;0.90;;;;;;;;;;5013195;28;20052;-74
2022/11/25 11:18:36;;;;;;;2.50;1.08;;;;;;;;;;5011551;28;20034;-73
2022/11/25 11:21:05;;;;;;;5.38;1.38;;;;;;;;;;5012478;28;20353;-73
2022/11/25 11:23:47;;;;;;;6.30;2.20;;;;;;;;;;5012950;28;20092;-73
2022/11/25 11:26:34;;;;;;;2.45;1.05;;;;;;;;;;5027005;28;20527;-75
2022/11/25 11:29:15;;;;;;;4.35;1.15;;;;;;;;;;4995215;28;20129;-75
2022/11/25 11:31:54;;;;;;;3.75;1.42;;;;;;;;;;4992228;28;20030;-73
2022/11/25 11:34:36;;;;;;;3.75;1.00;;;;;;;;;;4990454;28;20034;-73
2022/11/25 11:37:23;;;;;;;2.75;1.38;;;;;;;;;;4992618;28;20061;-72
2022/11/25 11:40:03;;;;;;;2.55;1.60;;;;;;;;;;4993189;28;20026;-73
2022/11/25 11:42:41;;;;;;;10.00;2.08;;;;;;;;;;4993343;28;20050;-76
2022/11/25 11:45:23;;;;;;;5.38;1.63;;;;;;;;;;4993391;28;20042;-76
2022/11/25 11:48:16;;;;;;;1.20;0.75;;;;;;;;;;4991908;28;20129;-75
2022/11/25 11:50:47;;;;;;;4.97;1.10;;;;;;;;;;4992135;28;20042;-76
2022/11/25 11:53:34;;;;;;;2.42;0.80;;;;;;;;;;4991577;28;20035;-74
2022/11/25 11:56:33;;;;;;;2.28;1.33;;;;;;;;;;4992987;28;20089;-74
2022/11/25 11:59:08;;;;;;;3.15;1.13;;;;;;;;;;4992974;28;20049;-74
2022/11/25 12:02:13;;;;;;;2.58;1.08;;;;;;;;;;5001166;28;20038;-75
2022/11/25 12:04:44;;;;;;;1.77;1.15;;;;;;;;;;5008137;28;20487;-74
2022/11/25 12:07:47;;;;;;;2.97;1.13;;;;;;;;;;5016191;28;20030;-74
2022/11/25 12:10:13;;;;;;;2.13;0.85;;;;;;;;;;5016081;28;20073;-74
2022/11/25 12:12:52;;;;;;;4.22;1.20;;;;;;;;;;5016219;28;20033;-73
2022/11/25 12:15:36;;;;;;;3.22;1.83;;;;;;;;;;5016363;28;20118;-74
2022/11/25 12:18:22;;;;;;;3.13;1.20;;;;;;;;;;5017427;28;20038;-73
2022/11/25 12:21:20;;;;;;;6.25;2.38;;;;;;;;;;5016439;28;20049;-73
2022/11/25 12:23:57;;;;;;;3.03;1.25;;;;;;;;;;5015741;28;20421;-73
2022/11/25 12:26:33;;;;;;;2.08;1.15;;;;;;;;;;5014027;28;20037;-73
2022/11/25 12:29:06;;;;;;;2.50;1.00;;;;;;;;;;5014733;28;20145;-73
2022/11/25 12:31:46;;;;;;;2.13;1.17;;;;;;;;;;5014112;28;20121;-73
2022/11/25 12:34:26;;;;;;;1.58;0.95;;;;;;;;;;4996301;28;20380;-73
2022/11/25 12:37:01;;;;;;;1.55;0.90;;;;;;;;;;4996421;28;20041;-74
2022/11/25 12:40:07;;;;;;;1.27;0.90;;;;;;;;;;4995951;28;20089;-74
2022/11/25 12:42:38;;;;;;;4.68;1.00;;;;;;;;;;4991316;28;20393;-73
2022/11/25 12:45:24;;;;;;;1.63;1.02;;;;;;;;;;4995675;28;20033;-74
2022/11/25 12:47:51;;;;;;;2.63;1.20;;;;;;;;;;4995009;28;20038;-73
2022/11/25 12:50:25;;;;;;;2.63;1.10;;;;;;;;;;5001693;28;20117;-73
2022/11/25 12:53:19;;;;;;;3.25;1.00;;;;;;;;;;5015551;28;20033;-74
2022/11/25 12:55:45;;;;;;;2.40;1.20;;;;;;;;;;5015560;28;20088;-73
2022/11/25 12:58:34;;;;;;;3.25;1.45;;;;;;;;;;5006594;28;20392;-75
2022/11/25 13:01:15;;;;;;;3.42;1.55;;;;;;;;;;4992421;28;20518;-74
2022/11/25 13:04:02;;;;;;;3.92;1.23;;;;;;;;;;4995454;28;20030;-74
2022/11/25 13:06:52;;;;;;;4.35;1.50;;;;;;;;;;5014220;28;20038;-75
2022/11/25 13:09:27;;;;;;;4.47;1.83;;;;;;;;;;5015011;28;20403;-74
2022/11/25 13:11:59;;;;;;;6.32;2.28;;;;;;;;;;4998564;28;20062;-74
2022/11/25 13:14:33;;;;;;;1.55;1.00;;;;;;;;;;5008182;28;20045;-75
2022/11/25 13:16:59;;;;;;;3.70;1.67;;;;;;;;;;5014898;28;20061;-74
2022/11/25 13:19:25;;;;;;;1.77;0.98;;;;;;;;;;5015240;28;20054;-73
2022/11/25 13:22:01;;;;;;;6.03;2.40;;;;;;;;;;5014470;28;20127;-75
2022/11/25 13:24:39;;;;;;;5.57;1.95;;;;;;;;;;4999308;28;20116;-74
2022/11/25 13:27:28;;;;;;;3.35;1.52;;;;;;;;;;4994675;28;20068;-73
2022/11/25 13:29:55;;;;;;;5.07;1.52;;;;;;;;;;4995176;28;20065;-74
2022/11/25 13:32:29;;;;;;;3.72;1.05;;;;;;;;;;4994943;28;20065;-74
2022/11/25 13:35:20;;;;;;;2.08;1.30;;;;;;;;;;4995828;28;20038;-73
2022/11/25 13:37:47;;;;;;;3.08;1.38;;;;;;;;;;4993873;28;20408;-73
2022/11/25 13:40:21;;;;;;;5.88;1.35;;;;;;;;;;4994762;28;20126;-73
2022/11/25 13:42:48;;;;;;;2.92;1.25;;;;;;;;;;4995097;28;20109;-74
2022/11/25 13:45:27;;;;;;;2.22;1.10;;;;;;;;;;4995193;28;20105;-72
2022/11/25 13:47:54;;;;;;;2.97;1.17;;;;;;;;;;4994825;28;20046;-74
2022/11/25 13:50:23;;;;;;;4.75;1.63;;;;;;;;;;5013863;28;20026;-75
2022/11/25 13:52:57;;;;;;;3.03;1.60;;;;;;;;;;5014451;28;20029;-73
2022/11/25 13:55:31;;;;;;;6.38;1.88;;;;;;;;;;5014730;28;20065;-74
2022/11/25 13:58:09;;;;;;;4.25;1.70;;;;;;;;;;5011621;28;20060;-72
2022/11/25 14:00:35;;;;;;;3.28;1.30;;;;;;;;;;5011539;28;20026;-74
2022/11/25 14:03:19;;;;;;;5.35;1.45;;;;;;;;;;5011248;28;20021;-73
2022/11/25 14:05:54;;;;;;;3.92;1.60;;;;;;;;;;5012039;28;20569;-74
2022/11/25 14:08:31;;;;;;;4.82;1.30;;;;;;;;;;5014252;28;20034;-73
2022/11/25 14:11:09;;;;;;;4.22;1.70;;;;;;;;;;5012023;28;20030;-76
2022/11/25 14:14:19;;;;;;;4.68;2.13;;;;;;;;;;5012489;28;20627;-74
2022/11/25 14:17:26;;;;;;;7.97;1.98;;;;;;;;;;4957966;28;20043;-73
2022/11/25 14:20:29;;;;;;;4.28;1.90;;;;;;;;;;5012269;28;20057;-74
2022/11/25 14:23:33;;;;;;;5.75;2.33;;;;;;;;;;5012744;28;20064;-74
2022/11/25 14:26:08;;;;;;;3.95;1.90;;;;;;;;;;5012256;28;20085;-74
2022/11/25 14:28:55;;;;;;;3.75;1.98;;;;;;;;;;5012892;28;20045;-73
2022/11/25 14:31:32;;;;;;;4.75;1.60;;;;;;;;;;5025788;28;20029;-74
2022/11/25 14:34:03;;;;;;;4.82;1.80;;;;;;;;;;5013599;28;20041;-74
2022/11/25 14:36:40;;;;;;;5.47;2.10;;;;;;;;;;5012084;28;20037;-73
2022/11/25 14:39:39;;;;;;;4.53;1.83;;;;;;;;;;5013932;28;20042;-73
2022/11/25 14:42:08;;;;;;;5.10;1.70;;;;;;;;;;5013357;28;20041;-73
2022/11/25 14:44:44;;;;;;;5.53;1.70;;;;;;;;;;5012884;28;20024;-72
2022/11/25 14:47:10;;;;;;;2.80;1.40;;;;;;;;;;5012843;28;20037;-75
2022/11/25 14:49:47;;;;;;;7.20;1.70;;;;;;;;;;5011634;28;20041;-75
2022/11/25 14:52:21;;;;;;;2.75;1.80;;;;;;;;;;5012890;28;20033;-75
2022/11/25 14:54:49;;;;;;;5.53;1.60;;;;;;;;;;5011863;28;20466;-75
2022/11/25 14:57:20;;;;;;;3.35;1.45;;;;;;;;;;5013489;28;20476;-76
2022/11/25 14:59:46;;;;;;;3.13;1.35;;;;;;;;;;5011973;28;20144;-80
2022/11/25 15:02:32;;;;;;;3.08;1.65;;;;;;;;;;5008947;28;20419;-74
2022/11/25 15:05:07;;;;;;;2.80;1.50;;;;;;;;;;4996150;28;20034;-71
2022/11/25 15:07:33;;;;;;;7.95;2.45;;;;;;;;;;5007354;28;20510;-74
2022/11/25 15:09:59;;;;;;;43.72;24.52;;;;;;;;;;5011520;28;20122;-73
2022/11/25 15:12:30;;;;;;;10.82;5.47;;;;;;;;;;5010631;28;20034;-73
2022/11/25 15:14:57;;;;;;;13.60;6.18;;;;;;;;;;4992466;28;20084;-75
2022/11/25 15:17:31;;;;;;;5.75;3.35;;;;;;;;;;4991789;28;20027;-77
2022/11/25 15:20:02;;;;;;;6.07;2.90;;;;;;;;;;4998281;28;20040;-76
2022/11/25 15:22:28;;;;;;;9.43;3.00;;;;;;;;;;5009841;28;20030;-75